Am Qui, Tennessee
Current Conditions -  °F | °C
As of 4:53 PM on Saturday 20 Dec 2014 (Local Time) from KBNA Reporting Station
Broken Clouds Broken Clouds  
Wind Chill: 39°   Ceiling: 9500
Heat Index: 43°   Visibility: 10mi
Dew Point: 29°   Wind: 7mph
Humidity: 58%   Direction: 360°N
Pressure: 30.25"   Gusts: NA
Location:  36.2555°N, 86.6973°W
Report Text: KBNA 202253Z 36006KT 10SM BKN095 06/M02 A3025 RMK AO2 SLP246 T00611017
Loading
Personal Weather Stations






























Interactive Weather Map New forecast layout! Learn more

10-Day Weather Forecast

Advertisements
Track Severe Weather on mobile